Olmsted Falls, Ohio
Current Conditions -  °F | °C
As of 9:34 AM on Tuesday 21 Oct 2014 (Local Time) from KCLE Reporting Station
Light Rain Light Rain  
Wind Chill: 50°   Ceiling: 1400
Heat Index: 50°   Visibility: 10mi
Dew Point: 47°   Wind: 12mph
Humidity: 89%   Direction: 320°NW
Pressure: 29.94"   Gusts: NA
Location:  41.37°N, 81.91°W
Report Text: KCLE 211334Z 32010KT 10SM -RA BKN014 OVC025 10/08 A2994 RMK AO2 P0001 T01000083 $
Loading
Personal Weather Stations






























Interactive Weather Map
Tropical Storm Tracking
New forecast layout! Learn more

10-Day Weather Forecast

Advertisements
Track Severe Weather on mobile